createdAt,value
2019-03-29T00:01:15.723Z,79.20
2019-03-29T00:03:44.178Z,79.40
2019-03-29T00:06:12.648Z,79.20
2019-03-29T00:08:41.104Z,79.20
2019-03-29T00:11:09.585Z,79.20
2019-03-29T00:13:38.192Z,79.20
2019-03-29T00:16:06.675Z,79.20
2019-03-29T00:18:35.966Z,79.30
2019-03-29T00:21:04.580Z,79.40
2019-03-29T00:23:33.051Z,79.40
2019-03-29T00:26:02.835Z,79.30
2019-03-29T00:28:31.287Z,79.40
2019-03-29T00:30:59.743Z,79.40
2019-03-29T00:33:28.191Z,79.40
2019-03-29T00:35:56.663Z,80.10
2019-03-29T00:38:25.141Z,79.40
2019-03-29T00:40:53.592Z,80.10
2019-03-29T00:43:22.050Z,79.40
2019-03-29T00:45:50.523Z,79.50
2019-03-29T00:48:18.987Z,79.40
2019-03-29T00:50:47.439Z,79.50
2019-03-29T00:53:15.897Z,79.50
2019-03-29T00:55:44.359Z,79.50
2019-03-29T00:58:12.815Z,79.50
2019-03-29T01:00:41.306Z,79.50
2019-03-29T01:03:10.870Z,79.60
2019-03-29T01:05:39.502Z,79.50
2019-03-29T01:08:10.295Z,79.50
2019-03-29T01:10:37.542Z,79.60
2019-03-29T01:13:06.000Z,78.40
2019-03-29T01:15:35.804Z,79.50
2019-03-29T01:18:03.938Z,79.60
2019-03-29T01:20:32.396Z,78.80
2019-03-29T01:23:00.864Z,79.50
2019-03-29T01:25:29.371Z,79.70
2019-03-29T01:27:57.990Z,79.80
2019-03-29T01:30:26.589Z,79.80
2019-03-29T01:32:55.167Z,79.80
2019-03-29T01:35:23.873Z,79.80
2019-03-29T01:37:52.396Z,79.80
2019-03-29T01:40:20.847Z,79.80
2019-03-29T01:42:49.305Z,79.80
2019-03-29T01:45:17.766Z,79.90
2019-03-29T01:47:46.224Z,80.00
2019-03-29T01:50:15.150Z,80.00
2019-03-29T01:52:43.610Z,80.00
2019-03-29T01:55:12.060Z,80.00
2019-03-29T01:57:40.516Z,80.00
2019-03-29T02:00:09.597Z,80.00
2019-03-29T02:02:38.336Z,80.00
2019-03-29T02:05:08.583Z,80.00
2019-03-29T02:07:37.993Z,80.00
2019-03-29T02:10:08.604Z,80.00
2019-03-29T02:12:36.556Z,80.00
2019-03-29T02:15:09.311Z,78.90
2019-03-29T02:17:38.150Z,79.80
2019-03-29T02:20:07.435Z,79.90
2019-03-29T02:22:36.296Z,80.00
2019-03-29T02:25:07.754Z,80.00
2019-03-29T02:27:36.215Z,80.00
2019-03-29T02:30:06.742Z,80.00
2019-03-29T02:32:35.248Z,80.10
2019-03-29T02:35:04.345Z,80.10
2019-03-29T02:37:32.835Z,80.10
2019-03-29T02:40:01.282Z,80.10
2019-03-29T02:42:29.738Z,80.10
2019-03-29T02:44:58.549Z,80.10
2019-03-29T02:47:27.063Z,80.20
2019-03-29T02:49:55.530Z,80.20
2019-03-29T02:52:23.983Z,80.30
2019-03-29T02:54:52.463Z,80.40
2019-03-29T02:57:20.926Z,80.30
2019-03-29T02:59:49.375Z,80.30
2019-03-29T03:02:17.818Z,80.30
2019-03-29T03:04:46.293Z,80.40
2019-03-29T03:07:14.844Z,80.30
2019-03-29T03:09:43.365Z,80.40
2019-03-29T03:12:11.896Z,80.40
2019-03-29T03:14:40.399Z,80.40
2019-03-29T03:17:08.853Z,80.40
2019-03-29T03:19:37.378Z,80.40
2019-03-29T03:22:05.876Z,80.50
2019-03-29T03:24:34.384Z,80.50
2019-03-29T03:27:02.850Z,80.50
2019-03-29T03:29:31.309Z,80.50
2019-03-29T03:31:59.762Z,80.50
2019-03-29T03:34:28.232Z,80.60
2019-03-29T03:36:56.705Z,80.60
2019-03-29T03:39:32.022Z,80.70
2019-03-29T03:41:55.345Z,80.70
2019-03-29T03:44:23.825Z,80.70
2019-03-29T03:46:52.338Z,80.70
2019-03-29T03:49:22.111Z,80.70
2019-03-29T03:51:50.548Z,80.70
2019-03-29T03:54:19.008Z,81.40
2019-03-29T03:56:49.144Z,80.60
2019-03-29T03:59:17.859Z,80.70
2019-03-29T04:01:46.945Z,80.70
2019-03-29T04:04:15.386Z,80.70
2019-03-29T04:06:44.132Z,80.60
2019-03-29T04:09:12.620Z,80.60
2019-03-29T04:11:41.159Z,80.60
2019-03-29T04:14:09.675Z,80.70
2019-03-29T04:16:38.125Z,80.60
2019-03-29T04:19:06.583Z,80.60
2019-03-29T04:21:35.038Z,80.70
2019-03-29T04:24:03.503Z,80.60
2019-03-29T04:26:32.033Z,80.60
2019-03-29T04:29:04.758Z,80.60
2019-03-29T04:31:30.656Z,80.60
2019-03-29T04:33:59.111Z,80.60
2019-03-29T04:36:27.645Z,80.60
2019-03-29T04:38:56.091Z,80.60
2019-03-29T04:41:24.621Z,80.70
2019-03-29T04:43:53.071Z,80.70
2019-03-29T04:46:21.542Z,80.70
2019-03-29T04:48:50.011Z,80.70
2019-03-29T04:51:18.471Z,80.70
2019-03-29T04:53:46.948Z,80.70
2019-03-29T04:56:15.411Z,80.60
2019-03-29T04:58:44.376Z,80.80
2019-03-29T05:01:12.900Z,80.70
2019-03-29T05:03:41.375Z,80.60
2019-03-29T05:06:09.820Z,80.60
2019-03-29T05:08:38.301Z,80.70
2019-03-29T05:11:06.823Z,80.60
2019-03-29T05:13:35.274Z,80.50
2019-03-29T05:16:05.007Z,80.50
2019-03-29T05:18:32.688Z,80.50
2019-03-29T05:21:01.139Z,80.30
2019-03-29T05:23:29.623Z,80.30
2019-03-29T05:25:58.163Z,80.50
2019-03-29T05:28:26.603Z,80.30
2019-03-29T05:30:55.261Z,80.30
2019-03-29T05:33:23.730Z,80.30
2019-03-29T05:35:52.185Z,80.30
2019-03-29T05:38:22.715Z,80.30
2019-03-29T05:40:51.167Z,80.30
2019-03-29T05:43:19.642Z,80.20
2019-03-29T05:45:48.648Z,80.20
2019-03-29T05:48:17.120Z,80.30
2019-03-29T05:50:45.580Z,80.10
2019-03-29T05:53:14.042Z,80.20
2019-03-29T05:55:42.500Z,80.20
2019-03-29T05:58:10.992Z,80.20
2019-03-29T06:00:39.511Z,80.30
2019-03-29T06:03:10.002Z,80.10
2019-03-29T06:05:38.244Z,80.00
2019-03-29T06:08:06.716Z,80.00
2019-03-29T06:10:47.925Z,80.00
2019-03-29T06:13:05.355Z,80.00
2019-03-29T06:15:33.815Z,79.90
2019-03-29T06:18:02.275Z,79.90
2019-03-29T06:20:30.775Z,79.80
2019-03-29T06:22:59.260Z,79.90
2019-03-29T06:25:27.712Z,79.60
2019-03-29T06:27:56.260Z,79.50
2019-03-29T06:30:30.983Z,79.40
2019-03-29T06:32:59.504Z,79.30
2019-03-29T06:35:31.028Z,79.30
2019-03-29T06:37:59.710Z,79.30
2019-03-29T06:40:28.169Z,79.30
2019-03-29T06:42:56.647Z,79.30
2019-03-29T06:45:25.112Z,79.50
2019-03-29T06:47:53.564Z,79.40
2019-03-29T06:50:22.053Z,79.40
2019-03-29T06:52:50.567Z,79.40
2019-03-29T06:55:19.024Z,79.40
2019-03-29T06:57:47.483Z,79.30
2019-03-29T07:00:16.540Z,79.30
2019-03-29T07:02:44.993Z,79.40
2019-03-29T07:05:13.499Z,79.30
2019-03-29T07:07:44.561Z,78.90
2019-03-29T07:10:12.220Z,78.70
2019-03-29T07:12:40.672Z,78.00
2019-03-29T07:15:09.396Z,78.20
2019-03-29T07:17:37.863Z,78.30
2019-03-29T07:20:07.347Z,78.00
2019-03-29T07:22:35.816Z,78.30
2019-03-29T07:25:06.786Z,78.30
2019-03-29T07:27:45.003Z,77.70
2019-03-29T07:30:06.874Z,77.40
2019-03-29T07:32:35.462Z,77.00
2019-03-29T07:35:05.755Z,77.00
2019-03-29T07:37:34.223Z,75.40
2019-03-29T07:40:05.689Z,75.80
2019-03-29T07:42:34.141Z,75.70
2019-03-29T07:45:02.593Z,75.20
2019-03-29T07:47:31.048Z,74.80
2019-03-29T07:49:59.498Z,75.00
2019-03-29T07:52:27.951Z,74.80
2019-03-29T07:54:56.410Z,74.30
2019-03-29T07:57:24.880Z,74.20
2019-03-29T07:59:53.323Z,74.20
2019-03-29T08:02:21.785Z,74.20
2019-03-29T08:04:51.134Z,73.30
2019-03-29T08:07:27.305Z,72.80
2019-03-29T08:09:49.949Z,72.60
2019-03-29T08:12:18.430Z,72.60
2019-03-29T08:14:46.958Z,72.40
2019-03-29T08:17:15.417Z,72.10
2019-03-29T08:19:43.931Z,71.90
2019-03-29T08:22:12.392Z,71.90
2019-03-29T08:24:40.862Z,71.40
2019-03-29T08:27:09.329Z,71.20
2019-03-29T08:29:37.787Z,71.50
2019-03-29T08:32:06.252Z,71.50
2019-03-29T08:34:36.026Z,70.90
2019-03-29T08:37:04.735Z,70.90
2019-03-29T08:39:33.187Z,70.90
2019-03-29T08:42:01.651Z,70.50
2019-03-29T08:44:30.115Z,70.40
2019-03-29T08:46:58.619Z,70.10
2019-03-29T08:49:27.071Z,68.60
2019-03-29T08:51:55.543Z,69.40
2019-03-29T08:54:24.033Z,68.10
2019-03-29T08:56:52.506Z,68.50
2019-03-29T08:59:21.028Z,67.70
2019-03-29T09:01:49.615Z,67.60
2019-03-29T09:04:21.485Z,67.40
2019-03-29T09:06:53.626Z,67.30
2019-03-29T09:09:17.767Z,65.90
2019-03-29T09:11:46.298Z,64.40
2019-03-29T09:14:14.785Z,64.70
2019-03-29T09:16:43.227Z,65.80
2019-03-29T09:19:11.705Z,66.40
2019-03-29T09:21:40.311Z,66.80
2019-03-29T09:24:21.160Z,63.60
2019-03-29T09:26:39.199Z,59.40
2019-03-29T09:29:07.658Z,61.80
2019-03-29T09:31:36.119Z,63.60
2019-03-29T09:34:04.578Z,63.20
2019-03-29T09:36:33.171Z,60.00
2019-03-29T09:39:01.748Z,60.90
2019-03-29T09:41:30.294Z,57.20
2019-03-29T09:43:58.808Z,58.40
2019-03-29T09:46:27.338Z,59.50
2019-03-29T09:48:55.849Z,58.20
2019-03-29T09:51:24.339Z,57.40
2019-03-29T09:53:52.821Z,58.20
2019-03-29T09:56:21.488Z,56.60
2019-03-29T09:58:50.000Z,57.00
2019-03-29T10:01:20.806Z,54.80
2019-03-29T10:03:48.656Z,54.60
2019-03-29T10:06:17.220Z,56.50
2019-03-29T10:08:45.686Z,57.70
2019-03-29T10:11:14.184Z,56.50
2019-03-29T10:13:42.724Z,57.20
2019-03-29T10:16:11.324Z,56.90
2019-03-29T10:18:39.975Z,54.40
2019-03-29T10:21:08.519Z,54.70
2019-03-29T10:23:36.964Z,53.60
2019-03-29T10:26:05.422Z,53.20
2019-03-29T10:28:33.898Z,53.70
2019-03-29T10:31:02.352Z,53.90
2019-03-29T10:33:30.819Z,54.40
2019-03-29T10:35:59.287Z,53.80
2019-03-29T10:38:27.743Z,53.50
2019-03-29T10:40:56.199Z,54.60
2019-03-29T10:43:24.735Z,54.60
2019-03-29T10:45:53.260Z,55.10
2019-03-29T10:48:21.781Z,54.30
2019-03-29T10:50:50.235Z,54.70
2019-03-29T10:53:18.727Z,53.90
2019-03-29T10:55:47.258Z,54.50
2019-03-29T10:58:15.735Z,52.60
2019-03-29T11:00:44.202Z,52.30
2019-03-29T11:03:12.660Z,53.20
2019-03-29T11:05:41.282Z,52.60
2019-03-29T11:08:11.662Z,54.80
2019-03-29T11:10:40.185Z,52.70
2019-03-29T11:13:13.121Z,53.40
2019-03-29T11:15:39.291Z,52.80
2019-03-29T11:18:08.219Z,52.80
2019-03-29T11:20:37.639Z,53.90
2019-03-29T11:23:06.850Z,55.30
2019-03-29T11:25:35.296Z,53.80
2019-03-29T11:28:04.168Z,52.40
2019-03-29T11:30:42.135Z,51.80
2019-03-29T11:33:02.885Z,52.40
2019-03-29T11:35:31.408Z,52.20
2019-03-29T11:37:59.867Z,52.00
2019-03-29T11:40:28.327Z,52.20
2019-03-29T11:42:56.821Z,49.60
2019-03-29T11:45:25.283Z,50.20
2019-03-29T11:48:07.255Z,52.70
2019-03-29T11:50:23.931Z,52.90
2019-03-29T11:52:52.395Z,53.40
2019-03-29T11:55:20.851Z,53.10
2019-03-29T11:57:49.309Z,53.20
2019-03-29T12:00:20.843Z,52.90
2019-03-29T12:02:49.304Z,51.50
2019-03-29T12:05:17.755Z,50.60
2019-03-29T12:07:46.227Z,50.50
2019-03-29T12:10:14.694Z,51.50
2019-03-29T12:12:43.172Z,50.90
2019-03-29T12:15:12.031Z,51.60
2019-03-29T12:17:40.508Z,50.70
2019-03-29T12:20:09.068Z,49.40
2019-03-29T12:22:37.511Z,50.20
2019-03-29T12:25:07.411Z,49.20
2019-03-29T12:27:35.861Z,50.70
2019-03-29T12:30:07.134Z,50.70
2019-03-29T12:32:35.605Z,51.00
2019-03-29T12:35:06.154Z,50.60
2019-03-29T12:37:34.610Z,50.40
2019-03-29T12:40:05.282Z,50.90
2019-03-29T12:42:33.736Z,50.30
2019-03-29T12:45:02.231Z,49.60
2019-03-29T12:47:30.757Z,50.00
2019-03-29T12:49:59.210Z,50.80
2019-03-29T12:52:27.715Z,49.80
2019-03-29T12:54:56.159Z,50.70
2019-03-29T12:57:24.619Z,50.80
2019-03-29T12:59:53.075Z,51.50
2019-03-29T13:02:21.523Z,51.50
2019-03-29T13:04:49.991Z,51.00
2019-03-29T13:07:18.451Z,50.70
2019-03-29T13:09:46.975Z,50.90
2019-03-29T13:12:15.426Z,51.20
2019-03-29T13:14:43.946Z,51.10
2019-03-29T13:17:12.661Z,49.50
2019-03-29T13:19:41.124Z,49.70
2019-03-29T13:22:10.020Z,49.40
2019-03-29T13:24:38.487Z,48.20
2019-03-29T13:27:06.961Z,48.90
2019-03-29T13:29:35.440Z,48.80
2019-03-29T13:32:04.072Z,49.20
2019-03-29T13:34:32.519Z,49.00
2019-03-29T13:37:01.050Z,48.90
2019-03-29T13:39:29.503Z,49.40
2019-03-29T13:41:57.979Z,49.00
2019-03-29T13:44:28.286Z,50.50
2019-03-29T13:46:56.638Z,50.70
2019-03-29T13:49:25.111Z,50.80
2019-03-29T13:51:53.558Z,50.80
2019-03-29T13:54:22.024Z,50.40
2019-03-29T13:56:50.484Z,50.00
2019-03-29T13:59:18.931Z,49.70
2019-03-29T14:01:47.387Z,50.00
2019-03-29T14:04:15.846Z,50.20
2019-03-29T14:06:44.743Z,51.10
2019-03-29T14:09:13.195Z,51.60
2019-03-29T14:11:41.643Z,50.90
2019-03-29T14:14:10.091Z,51.50
2019-03-29T14:16:38.589Z,50.30
2019-03-29T14:19:07.111Z,50.60
2019-03-29T14:21:35.560Z,50.70
2019-03-29T14:24:04.035Z,50.80
2019-03-29T14:26:32.483Z,51.60
2019-03-29T14:29:00.945Z,50.10
2019-03-29T14:31:29.423Z,49.50
2019-03-29T14:33:57.868Z,50.50
2019-03-29T14:36:26.483Z,51.20
2019-03-29T14:38:54.948Z,50.20
2019-03-29T14:41:23.401Z,49.30
2019-03-29T14:43:51.858Z,50.80
2019-03-29T14:46:20.321Z,50.90
2019-03-29T14:48:48.971Z,51.80
2019-03-29T14:51:17.430Z,51.30
2019-03-29T14:53:45.877Z,50.20
2019-03-29T14:56:14.420Z,49.30
2019-03-29T14:58:42.863Z,50.40
2019-03-29T15:01:12.419Z,48.80
2019-03-29T15:03:40.879Z,50.60
2019-03-29T15:06:09.402Z,50.20
2019-03-29T15:08:37.972Z,50.50
2019-03-29T15:11:06.519Z,50.90
2019-03-29T15:13:34.967Z,50.90
2019-03-29T15:16:03.415Z,50.70
2019-03-29T15:18:31.909Z,50.40
2019-03-29T15:21:00.363Z,50.10
2019-03-29T15:23:28.887Z,50.20
2019-03-29T15:25:57.340Z,50.30
2019-03-29T15:28:25.823Z,50.40
2019-03-29T15:30:54.309Z,50.20
2019-03-29T15:33:22.964Z,50.10
2019-03-29T15:35:51.430Z,50.40
2019-03-29T15:38:19.880Z,50.50
2019-03-29T15:40:48.345Z,50.60
2019-03-29T15:43:16.935Z,50.80
2019-03-29T15:45:45.400Z,51.00
2019-03-29T15:48:13.871Z,51.40
2019-03-29T15:50:42.424Z,51.30
2019-03-29T15:53:11.050Z,51.50
2019-03-29T15:55:39.514Z,51.30
2019-03-29T15:58:08.145Z,51.30
2019-03-29T16:00:36.598Z,50.10
2019-03-29T16:03:05.071Z,49.70
2019-03-29T16:05:33.537Z,50.10
2019-03-29T16:08:02.003Z,50.30
2019-03-29T16:10:30.455Z,50.50
2019-03-29T16:12:58.895Z,51.10
2019-03-29T16:15:34.213Z,51.40
2019-03-29T16:17:58.320Z,51.40
2019-03-29T16:20:26.805Z,50.30
2019-03-29T16:22:55.359Z,52.70
2019-03-29T16:25:23.828Z,52.30
2019-03-29T16:27:52.295Z,52.20
2019-03-29T16:30:20.921Z,52.00
2019-03-29T16:32:49.386Z,52.30
2019-03-29T16:35:17.863Z,52.50
2019-03-29T16:37:56.644Z,52.30
2019-03-29T16:40:16.536Z,52.90
2019-03-29T16:42:45.018Z,52.90
2019-03-29T16:45:13.531Z,53.00
2019-03-29T16:47:41.987Z,53.40
2019-03-29T16:50:10.671Z,53.10
2019-03-29T16:52:39.164Z,53.10
2019-03-29T16:55:13.561Z,54.10
2019-03-29T16:57:38.804Z,54.00
2019-03-29T17:00:12.649Z,53.90
2019-03-29T17:02:41.431Z,53.90
2019-03-29T17:05:11.666Z,54.10
2019-03-29T17:07:40.210Z,54.30
2019-03-29T17:10:09.315Z,54.60
2019-03-29T17:12:37.845Z,55.00
2019-03-29T17:15:07.041Z,55.40
2019-03-29T17:17:35.968Z,55.60
2019-03-29T17:20:08.791Z,56.00
2019-03-29T17:22:37.364Z,56.30
2019-03-29T17:25:07.316Z,57.20
2019-03-29T17:27:35.844Z,56.70
2019-03-29T17:30:06.447Z,57.10
2019-03-29T17:32:34.899Z,57.30
2019-03-29T17:35:03.991Z,57.60
2019-03-29T17:37:32.455Z,57.80
2019-03-29T17:40:00.940Z,58.00
2019-03-29T17:42:29.416Z,58.30
2019-03-29T17:44:59.058Z,58.40
2019-03-29T17:47:27.727Z,58.80
2019-03-29T17:49:56.177Z,59.10
2019-03-29T17:52:24.645Z,59.30
2019-03-29T17:54:55.020Z,59.60
2019-03-29T17:57:23.798Z,59.90
2019-03-29T17:59:55.172Z,60.20
2019-03-29T18:02:23.804Z,60.50
2019-03-29T18:04:52.262Z,60.80
2019-03-29T18:07:20.727Z,61.10
2019-03-29T18:09:49.180Z,61.40
2019-03-29T18:12:17.666Z,61.80
2019-03-29T18:14:46.180Z,62.00
2019-03-29T18:17:14.661Z,62.40
2019-03-29T18:19:43.104Z,62.80
2019-03-29T18:22:11.577Z,63.10
2019-03-29T18:24:40.043Z,63.40
2019-03-29T18:27:08.500Z,63.80
2019-03-29T18:29:36.947Z,64.10
2019-03-29T18:32:05.482Z,64.40
2019-03-29T18:34:34.698Z,64.60
2019-03-29T18:37:04.019Z,64.90
2019-03-29T18:39:33.011Z,65.20
2019-03-29T18:42:01.503Z,65.40
2019-03-29T18:44:29.959Z,65.70
2019-03-29T18:46:58.426Z,66.30
2019-03-29T18:49:26.888Z,66.70
2019-03-29T18:51:55.359Z,66.90
2019-03-29T18:54:23.829Z,67.10
2019-03-29T18:56:52.272Z,67.20
2019-03-29T18:59:20.739Z,67.40
2019-03-29T19:01:49.199Z,67.40
2019-03-29T19:04:17.676Z,67.60
2019-03-29T19:06:46.179Z,67.80
2019-03-29T19:09:14.638Z,67.80
2019-03-29T19:11:43.081Z,67.80
2019-03-29T19:14:11.580Z,68.00
2019-03-29T19:16:40.092Z,68.30
2019-03-29T19:19:10.335Z,68.40
2019-03-29T19:21:38.745Z,68.40
2019-03-29T19:24:07.309Z,68.60
2019-03-29T19:26:35.759Z,68.70
2019-03-29T19:29:04.289Z,68.90
2019-03-29T19:31:32.743Z,69.00
2019-03-29T19:34:01.202Z,69.10
2019-03-29T19:36:29.727Z,69.40
2019-03-29T19:38:58.180Z,69.60
2019-03-29T19:41:26.637Z,69.70
2019-03-29T19:43:55.095Z,70.00
2019-03-29T19:46:23.562Z,70.20
2019-03-29T19:48:52.068Z,70.50
2019-03-29T19:51:20.527Z,70.70
2019-03-29T19:53:49.015Z,70.80
2019-03-29T19:56:21.829Z,71.00
2019-03-29T19:58:50.361Z,71.40
2019-03-29T20:01:18.883Z,71.40
2019-03-29T20:03:47.349Z,71.70
2019-03-29T20:06:15.866Z,72.00
2019-03-29T20:08:44.330Z,72.10
2019-03-29T20:11:12.788Z,72.10
2019-03-29T20:13:41.256Z,72.30
2019-03-29T20:16:09.796Z,72.20
2019-03-29T20:18:38.251Z,72.30
2019-03-29T20:21:06.716Z,72.40
2019-03-29T20:23:35.171Z,72.60
2019-03-29T20:26:03.706Z,72.60
2019-03-29T20:28:32.168Z,72.90
2019-03-29T20:31:00.907Z,73.10
2019-03-29T20:33:29.442Z,73.30
2019-03-29T20:35:57.910Z,73.30
2019-03-29T20:38:26.376Z,73.60
2019-03-29T20:40:54.905Z,73.80
2019-03-29T20:43:23.392Z,74.00
2019-03-29T20:45:51.845Z,74.20
2019-03-29T20:48:20.320Z,74.20
2019-03-29T20:50:48.771Z,74.30
2019-03-29T20:53:17.227Z,74.30
2019-03-29T20:55:45.695Z,74.30
2019-03-29T20:58:14.157Z,74.20
2019-03-29T21:00:42.616Z,74.30
2019-03-29T21:03:11.069Z,74.20
2019-03-29T21:05:39.514Z,74.30
2019-03-29T21:08:07.959Z,74.40
2019-03-29T21:10:36.435Z,75.20
2019-03-29T21:13:07.156Z,74.60
2019-03-29T21:15:35.143Z,74.80
2019-03-29T21:18:03.584Z,75.00
2019-03-29T21:20:32.403Z,75.20
2019-03-29T21:23:00.867Z,75.20
2019-03-29T21:25:29.311Z,75.30
2019-03-29T21:27:57.809Z,75.30
2019-03-29T21:30:26.347Z,75.30
2019-03-29T21:32:54.825Z,75.20
2019-03-29T21:35:23.312Z,75.20
2019-03-29T21:37:51.827Z,75.20
2019-03-29T21:40:20.305Z,75.30
2019-03-29T21:42:48.756Z,75.30
2019-03-29T21:45:28.153Z,75.40
2019-03-29T21:48:01.468Z,75.60
2019-03-29T21:50:17.967Z,75.70
2019-03-29T21:52:46.448Z,75.70
2019-03-29T21:55:14.904Z,75.70
2019-03-29T21:57:43.365Z,75.80
2019-03-29T22:00:12.633Z,76.10
2019-03-29T22:02:41.100Z,76.30
2019-03-29T22:05:10.546Z,76.50
2019-03-29T22:07:39.322Z,76.50
2019-03-29T22:10:11.757Z,76.70
2019-03-29T22:12:43.061Z,76.80
2019-03-29T22:15:10.715Z,77.00
2019-03-29T22:17:39.171Z,77.00
2019-03-29T22:20:08.655Z,76.90
2019-03-29T22:22:37.473Z,76.80
2019-03-29T22:25:08.028Z,76.90
2019-03-29T22:27:36.481Z,77.10
2019-03-29T22:30:09.146Z,77.00
2019-03-29T22:32:37.605Z,76.90
2019-03-29T22:35:07.314Z,76.90
2019-03-29T22:37:35.834Z,77.00
2019-03-29T22:40:06.635Z,77.00
2019-03-29T22:42:35.140Z,77.10
2019-03-29T22:45:05.228Z,77.10
2019-03-29T22:47:33.681Z,77.10
2019-03-29T22:50:02.156Z,77.10
2019-03-29T22:52:30.702Z,77.10
2019-03-29T22:54:59.159Z,77.20
2019-03-29T22:57:27.611Z,77.30
2019-03-29T22:59:56.069Z,77.30
2019-03-29T23:02:24.584Z,77.30
2019-03-29T23:04:53.040Z,77.40
2019-03-29T23:07:21.497Z,77.30
2019-03-29T23:09:49.947Z,77.30
2019-03-29T23:12:18.404Z,77.30
2019-03-29T23:14:47.172Z,77.40
2019-03-29T23:17:15.636Z,77.60
2019-03-29T23:19:44.114Z,77.60
2019-03-29T23:22:12.644Z,78.00
2019-03-29T23:24:41.093Z,77.90
2019-03-29T23:27:09.554Z,78.00
2019-03-29T23:29:37.995Z,78.20
2019-03-29T23:32:06.516Z,78.30
2019-03-29T23:34:34.947Z,78.40
2019-03-29T23:37:03.405Z,78.60
2019-03-29T23:39:31.854Z,78.40
2019-03-29T23:42:00.339Z,78.60
2019-03-29T23:44:28.792Z,78.50
2019-03-29T23:46:57.236Z,78.40
2019-03-29T23:49:25.690Z,78.50
2019-03-29T23:51:54.163Z,78.60
2019-03-29T23:54:22.623Z,78.60
2019-03-29T23:56:51.080Z,78.70
2019-03-29T23:59:19.531Z,78.90
